Map

Track Data

SID SEASON NUMBER BASIN SUBBASIN NAME ISO_TIME NATURE LAT LON WMO_WIND WMO_PRES WMO_AGENCY TRACK_TYPE DIST2LAND LANDFALL IFLAG USA_AGENCY USA_ATCF_ID USA_LAT USA_LON USA_RECORD USA_STATUS USA_WIND USA_PRES USA_SSHS USA_R34_NE USA_R34_SE USA_R34_SW USA_R34_NW USA_R50_NE USA_R50_SE USA_R50_SW USA_R50_NW USA_R64_NE USA_R64_SE USA_R64_SW USA_R64_NW USA_POCI USA_ROCI USA_RMW USA_EYE TOKYO_LAT TOKYO_LON TOKYO_GRADE TOKYO_WIND TOKYO_PRES TOKYO_R50_DIR TOKYO_R50_LONG TOKYO_R50_SHORT TOKYO_R30_DIR TOKYO_R30_LONG TOKYO_R30_SHORT TOKYO_LAND CMA_LAT CMA_LON CMA_CAT CMA_WIND CMA_PRES HKO_LAT HKO_LON HKO_CAT HKO_WIND HKO_PRES NEWDELHI_LAT NEWDELHI_LON NEWDELHI_GRADE NEWDELHI_WIND NEWDELHI_PRES NEWDELHI_CI NEWDELHI_DP NEWDELHI_POCI REUNION_LAT REUNION_LON REUNION_TYPE REUNION_WIND REUNION_PRES REUNION_TNUM REUNION_CI REUNION_RMW REUNION_R34_NE REUNION_R34_SE REUNION_R34_SW REUNION_R34_NW REUNION_R50_NE REUNION_R50_SE REUNION_R50_SW REUNION_R50_NW REUNION_R64_NE REUNION_R64_SE REUNION_R64_SW REUNION_R64_NW BOM_LAT BOM_LON BOM_TYPE BOM_WIND BOM_PRES BOM_TNUM BOM_CI BOM_RMW BOM_R34_NE BOM_R34_SE BOM_R34_SW BOM_R34_NW BOM_R50_NE BOM_R50_SE BOM_R50_SW BOM_R50_NW BOM_R64_NE BOM_R64_SE BOM_R64_SW BOM_R64_NW BOM_ROCI BOM_POCI BOM_EYE BOM_POS_METHOD BOM_PRES_METHOD NADI_LAT NADI_LON NADI_CAT NADI_WIND NADI_PRES WELLINGTON_LAT WELLINGTON_LON WELLINGTON_WIND WELLINGTON_PRES DS824_LAT DS824_LON DS824_STAGE DS824_WIND DS824_PRES TD9636_LAT TD9636_LON TD9636_STAGE TD9636_WIND TD9636_PRES TD9635_LAT TD9635_LON TD9635_WIND TD9635_PRES TD9635_ROCI NEUMANN_LAT NEUMANN_LON NEUMANN_CLASS NEUMANN_WIND NEUMANN_PRES MLC_LAT MLC_LON MLC_CLASS MLC_WIND MLC_PRES USA_GUST BOM_GUST BOM_GUST_PER REUNION_GUST REUNION_GUST_PER USA_SEAHGT USA_SEARAD_NE USA_SEARAD_SE USA_SEARAD_SW USA_SEARAD_NW STORM_SPEED STORM_DIR
1995256N12309 1995 65 NA NA MARILYN 1995-09-12 18:00:00 TS 11.7000 -50.9000 30 1006 hurdat_atl main 743 705 O_____________ hurdat_atl AL151995 11.7000 -50.9000 TD 30 1006 -1 18 273
1995256N12309 1995 65 NA NA MARILYN 1995-09-12 21:00:00 TS 11.7530 -51.8075 main 711 681 P_____________ AL151995 11.7530 -51.8075 TD 32 1005 -1 18 273
1995256N12309 1995 65 NA NA MARILYN 1995-09-13 00:00:00 TS 11.8000 -52.7000 35 1004 hurdat_atl main 681 665 O_____________ hurdat_atl AL151995 11.8000 -52.7000 TS 35 1004 0 17 273
1995256N12309 1995 65 NA NA MARILYN 1995-09-13 03:00:00 TS 11.8424 -53.5525 main 664 664 P_____________ AL151995 11.8424 -53.5525 TS 40 1001 0 16 274
1995256N12309 1995 65 NA NA MARILYN 1995-09-13 06:00:00 TS 11.9000 -54.3000 45 999 hurdat_atl main 672 634 O_____________ hurdat_atl AL151995 11.9000 -54.3000 TS 45 999 0 13 276
1995256N12309 1995 65 NA NA MARILYN 1995-09-13 09:00:00 TS 11.9771 -54.8876 main 634 605 P_____________ AL151995 11.9771 -54.8876 TS 50 997 0 11 281
1995256N12309 1995 65 NA NA MARILYN 1995-09-13 12:00:00 TS 12.1000 -55.4000 55 995 hurdat_atl main 605 580 O_____________ hurdat_atl AL151995 12.1000 -55.4000 TS 55 995 0 11 286
1995256N12309 1995 65 NA NA MARILYN 1995-09-13 15:00:00 TS 12.2773 -55.9426 main 584 530 P_____________ AL151995 12.2773 -55.9426 TS 57 992 0 11 290
1995256N12309 1995 65 NA NA MARILYN 1995-09-13 18:00:00 TS 12.5000 -56.5000 60 990 hurdat_atl main 530 480 O_____________ hurdat_atl AL151995 12.5000 -56.5000 TS 60 990 0 12 292
1995256N12309 1995 65 NA NA MARILYN 1995-09-13 21:00:00 TS 12.7425 -57.1000 main 480 442 P_____________ AL151995 12.7425 -57.1000 TS 62 989 0 13 293
1995256N12309 1995 65 NA NA MARILYN 1995-09-14 00:00:00 TS 13.0000 -57.7000 65 988 hurdat_atl main 442 413 O_____________ hurdat_atl AL151995 13.0000 -57.7000 HU 65 988 1 12 293
1995256N12309 1995 65 NA NA MARILYN 1995-09-14 03:00:00 TS 13.2349 -58.2652 main 405 392 P_____________ AL151995 13.2349 -58.2652 HU 67 987 1 12 295
1995256N12309 1995 65 NA NA MARILYN 1995-09-14 06:00:00 TS 13.5000 -58.8000 70 987 hurdat_atl main 394 387 O_____________ hurdat_atl AL151995 13.5000 -58.8000 HU 70 987 1 12 300
1995256N12309 1995 65 NA NA MARILYN 1995-09-14 09:00:00 TS 13.8274 -59.3076 main 393 393 P_____________ AL151995 13.8274 -59.3076 HU 70 986 1 12 306
1995256N12309 1995 65 NA CS MARILYN 1995-09-14 12:00:00 TS 14.2000 -59.8000 70 986 hurdat_atl main 413 409 O_____________ hurdat_atl AL151995 14.2000 -59.8000 HU 70 986 1 12 308
1995256N12309 1995 65 NA CS MARILYN 1995-09-14 15:00:00 TS 14.5726 -60.3002 main 443 441 P_____________ AL151995 14.5726 -60.3002 HU 70 984 1 13 310
1995256N12309 1995 65 NA CS MARILYN 1995-09-14 18:00:00 TS 15.0000 -60.8000 70 983 hurdat_atl main 481 481 O_____________ hurdat_atl AL151995 15.0000 -60.8000 HU 70 983 1 13 314
1995256N12309 1995 65 NA CS MARILYN 1995-09-14 21:00:00 TS 15.5000 -61.3000 70 984 hurdat_atl main 537 494 O_____________ hurdat_atl AL151995 15.5000 -61.3000 L HU 70 984 1 12 313
1995256N12309 1995 65 NA CS MARILYN 1995-09-15 00:00:00 TS 15.8000 -61.7000 75 985 hurdat_atl main 494 431 O_____________ hurdat_atl AL151995 15.8000 -61.7000 HU 75 985 1 11 306
1995256N12309 1995 65 NA CS MARILYN 1995-09-15 03:00:00 TS 16.1673 -62.2463 main 424 352 P_____________ AL151995 16.1673 -62.2463 HU 77 981 1 13 304
1995256N12309 1995 65 NA CS MARILYN 1995-09-15 06:00:00 TS 16.5000 -62.8000 80 977 hurdat_atl main 352 304 O_____________ hurdat_atl AL151995 16.5000 -62.8000 HU 80 977 1 10 299
1995256N12309 1995 65 NA CS MARILYN 1995-09-15 09:00:00 TS 16.6573 -63.1805 main 304 272 P_____________ AL151995 16.6573 -63.1805 HU 80 975 1 7 294
1995256N12309 1995 65 NA CS MARILYN 1995-09-15 12:00:00 TS 16.8000 -63.5000 80 974 hurdat_atl main 272 227 O_____________ hurdat_atl AL151995 16.8000 -63.5000 HU 80 974 1 8 303
1995256N12309 1995 65 NA CS MARILYN 1995-09-15 15:00:00 TS 17.0850 -63.8649 main 218 173 P_____________ AL151995 17.0850 -63.8649 HU 82 971 1 9 312
1995256N12309 1995 65 NA CS MARILYN 1995-09-15 18:00:00 TS 17.4000 -64.2000 85 969 hurdat_atl main 173 134 O_____________ hurdat_atl AL151995 17.4000 -64.2000 HU 85 969 2 8 315
1995256N12309 1995 65 NA CS MARILYN 1995-09-15 21:00:00 TS 17.6499 -64.4652 main 134 100 P_____________ AL151995 17.6499 -64.4652 HU 87 965 2 7 316
1995256N12309 1995 65 NA CS MARILYN 1995-09-16 00:00:00 TS 17.9000 -64.7000 90 962 hurdat_atl main 100 73 O_____________ hurdat_atl AL151995 17.9000 -64.7000 HU 90 962 2 7 320
1995256N12309 1995 65 NA CS MARILYN 1995-09-16 03:00:00 TS 18.1999 -64.9426 main 73 43 P_____________ AL151995 18.1999 -64.9426 HU 92 957 2 8 322
1995256N12309 1995 65 NA CS MARILYN 1995-09-16 06:00:00 TS 18.5000 -65.2000 95 952 hurdat_atl main 43 30 O_____________ hurdat_atl AL151995 18.5000 -65.2000 HU 95 952 2 8 316
1995256N12309 1995 65 NA CS MARILYN 1995-09-16 09:00:00 TS 18.7425 -65.4927 main 35 35 P_____________ AL151995 18.7425 -65.4927 HU 95 951 2 8 311
1995256N12309 1995 65 NA NA MARILYN 1995-09-16 12:00:00 TS 19.0000 -65.8000 95 951 hurdat_atl main 67 67 O_____________ hurdat_atl AL151995 19.0000 -65.8000 HU 95 951 2 8 316
1995256N12309 1995 65 NA NA MARILYN 1995-09-16 15:00:00 TS 19.3350 -66.1001 main 100 100 P_____________ AL151995 19.3350 -66.1001 HU 97 950 3 9 321
1995256N12309 1995 65 NA NA MARILYN 1995-09-16 18:00:00 TS 19.7000 -66.4000 100 950 hurdat_atl main 145 145 O_____________ hurdat_atl AL151995 19.7000 -66.4000 HU 100 950 3 9 320
1995256N12309 1995 65 NA NA MARILYN 1995-09-16 21:00:00 TS 20.0603 -66.7408 main 190 190 P_____________ AL151995 20.0603 -66.7408 HU 100 950 3 9 321
1995256N12309 1995 65 NA NA MARILYN 1995-09-17 00:00:00 TS 20.4000 -67.0000 100 950 hurdat_atl main 223 223 O_____________ hurdat_atl AL151995 20.4000 -67.0000 HU 100 950 3 7 332
1995256N12309 1995 65 NA NA MARILYN 1995-09-17 03:00:00 TS 20.7000 -67.1000 100 949 hurdat_atl main 257 257 O_____________ hurdat_atl AL151995 20.7000 -67.1000 I HU 100 949 3 9 330
1995256N12309 1995 65 NA NA MARILYN 1995-09-17 06:00:00 TS 21.2000 -67.5000 95 953 hurdat_atl main 283 283 O_____________ hurdat_atl AL151995 21.2000 -67.5000 HU 95 953 2 12 322
1995256N12309 1995 65 NA NA MARILYN 1995-09-17 09:00:00 TS 21.6136 -67.8673 main 295 295 P_____________ AL151995 21.6136 -67.8673 HU 87 959 2 10 321
1995256N12309 1995 65 NA NA MARILYN 1995-09-17 12:00:00 TS 22.0000 -68.2000 80 965 hurdat_atl main 322 322 O_____________ hurdat_atl AL151995 22.0000 -68.2000 HU 80 965 1 10 323
1995256N12309 1995 65 NA NA MARILYN 1995-09-17 15:00:00 TS 22.4275 -68.5301 main 349 349 P_____________ AL151995 22.4275 -68.5301 HU 80 966 1 11 328
1995256N12309 1995 65 NA NA MARILYN 1995-09-17 18:00:00 TS 22.9000 -68.8000 80 968 hurdat_atl main 389 389 O_____________ hurdat_atl AL151995 22.9000 -68.8000 HU 80 968 1 11 338
1995256N12309 1995 65 NA NA MARILYN 1995-09-17 21:00:00 TS 23.4424 -68.9728 main 435 435 P_____________ AL151995 23.4424 -68.9728 HU 82 965 1 11 346
1995256N12309 1995 65 NA NA MARILYN 1995-09-18 00:00:00 TS 24.0000 -69.1000 85 963 hurdat_atl main 494 494 O_____________ hurdat_atl AL151995 24.0000 -69.1000 HU 85 963 2 11 346
1995256N12309 1995 65 NA NA MARILYN 1995-09-18 03:00:00 TS 24.5000 -69.2650 main 528 528 P_____________ AL151995 24.5000 -69.2650 HU 85 964 2 10 345
1995256N12309 1995 65 NA NA MARILYN 1995-09-18 06:00:00 TS 25.0000 -69.4000 85 965 hurdat_atl main 561 561 O_____________ hurdat_atl AL151995 25.0000 -69.4000 HU 85 965 2 11 349
1995256N12309 1995 65 NA NA MARILYN 1995-09-18 09:00:00 TS 25.5425 -69.4874 main 598 598 P_____________ AL151995 25.5425 -69.4874 HU 85 965 2 11 355
1995256N12309 1995 65 NA NA MARILYN 1995-09-18 12:00:00 TS 26.1000 -69.5000 85 966 hurdat_atl main 653 653 O_____________ hurdat_atl AL151995 26.1000 -69.5000 HU 85 966 2 11 3
1995256N12309 1995 65 NA NA MARILYN 1995-09-18 15:00:00 TS 26.6425 -69.4301 main 705 705 P_____________ AL151995 26.6425 -69.4301 HU 82 966 1 11 9
1995256N12309 1995 65 NA NA MARILYN 1995-09-18 18:00:00 TS 27.2000 -69.3000 80 966 hurdat_atl main 768 768 O_____________ hurdat_atl AL151995 27.2000 -69.3000 HU 80 966 1 12 12
1995256N12309 1995 65 NA NA MARILYN 1995-09-18 21:00:00 TS 27.7925 -69.1648 main 831 831 P_____________ AL151995 27.7925 -69.1648 HU 80 967 1 12 12
1995256N12309 1995 65 NA NA MARILYN 1995-09-19 00:00:00 TS 28.4000 -69.0000 80 969 hurdat_atl main 899 899 O_____________ hurdat_atl AL151995 28.4000 -69.0000 HU 80 969 1 12 15
1995256N12309 1995 65 NA NA MARILYN 1995-09-19 03:00:00 TS 28.9850 -68.8073 main 964 933 P_____________ AL151995 28.9850 -68.8073 HU 77 969 1 13 16
1995256N12309 1995 65 NA NA MARILYN 1995-09-19 06:00:00 TS 29.6000 -68.6000 75 970 hurdat_atl main 933 904 O_____________ hurdat_atl AL151995 29.6000 -68.6000 HU 75 970 1 13 15
1995256N12309 1995 65 NA NA MARILYN 1995-09-19 09:00:00 TS 30.2700 -68.4070 main 898 862 P_____________ AL151995 30.2700 -68.4070 HU 75 973 1 14 14
1995256N12309 1995 65 NA NA MARILYN 1995-09-19 12:00:00 TS 31.0000 -68.2000 75 976 hurdat_atl main 862 827 O_____________ hurdat_atl AL151995 31.0000 -68.2000 HU 75 976 1 16 13
1995256N12309 1995 65 NA NA MARILYN 1995-09-19 15:00:00 TS 31.7848 -67.9865 main 822 796 P_____________ AL151995 31.7848 -67.9865 HU 77 975 1 17 15
1995256N12309 1995 65 NA NA MARILYN 1995-09-19 18:00:00 TS 32.6000 -67.7000 80 974 hurdat_atl main 799 792 O_____________ hurdat_atl AL151995 32.6000 -67.7000 HU 80 974 1 17 21
1995256N12309 1995 65 NA NA MARILYN 1995-09-19 21:00:00 TS 33.4003 -67.2654 main 794 794 P_____________ AL151995 33.4003 -67.2654 HU 80 974 1 18 25
1995256N12309 1995 65 NA NA MARILYN 1995-09-20 00:00:00 TS 34.2000 -66.8000 80 974 hurdat_atl main 810 805 O_____________ hurdat_atl AL151995 34.2000 -66.8000 HU 80 974 1 17 23
1995256N12309 1995 65 NA NA MARILYN 1995-09-20 03:00:00 TS 35.0071 -66.4486 main 808 738 P_____________ AL151995 35.0071 -66.4486 HU 77 975 1 17 20
1995256N12309 1995 65 NA NA MARILYN 1995-09-20 06:00:00 TS 35.8000 -66.1000 75 976 hurdat_atl main 738 677 O_____________ hurdat_atl AL151995 35.8000 -66.1000 HU 75 976 1 17 22
1995256N12309 1995 65 NA NA MARILYN 1995-09-20 09:00:00 TS 36.5950 -65.6651 main 677 638 P_____________ AL151995 36.5950 -65.6651 HU 72 977 1 17 26
1995256N12309 1995 65 NA NA MARILYN 1995-09-20 12:00:00 TS 37.3000 -65.2000 70 978 hurdat_atl main 638 620 O_____________ hurdat_atl AL151995 37.3000 -65.2000 HU 70 978 1 15 30
1995256N12309 1995 65 NA NA MARILYN 1995-09-20 15:00:00 TS 37.8597 -64.7565 main 612 583 P_____________ AL151995 37.8597 -64.7565 HU 70 979 1 12 35
1995256N12309 1995 65 NA NA MARILYN 1995-09-20 18:00:00 TS 38.3000 -64.3000 70 980 hurdat_atl main 584 546 O_____________ hurdat_atl AL151995 38.3000 -64.3000 HU 70 980 1 11 41
1995256N12309 1995 65 NA NA MARILYN 1995-09-20 21:00:00 TS 38.7019 -63.8371 main 548 525 P_____________ AL151995 38.7019 -63.8371 HU 67 981 1 10 48
1995256N12309 1995 65 NA NA MARILYN 1995-09-21 00:00:00 TS 39.0000 -63.3000 65 982 hurdat_atl main 527 519 O_____________ hurdat_atl AL151995 39.0000 -63.3000 HU 65 982 1 11 62
1995256N12309 1995 65 NA NA MARILYN 1995-09-21 03:00:00 TS 39.1952 -62.6222 main 528 528 P_____________ AL151995 39.1952 -62.6222 HU 65 983 1 11 75
1995256N12309 1995 65 NA NA MARILYN 1995-09-21 06:00:00 TS 39.3000 -61.9000 65 984 hurdat_atl main 545 545 O_____________ hurdat_atl AL151995 39.3000 -61.9000 HU 65 984 1 11 81
1995256N12309 1995 65 NA NA MARILYN 1995-09-21 09:00:00 TS 39.3570 -61.2418 main 569 569 P_____________ AL151995 39.3570 -61.2417 HU 65 985 1 10 84
1995256N12309 1995 65 NA NA MARILYN 1995-09-21 12:00:00 TS 39.4000 -60.6000 65 987 hurdat_atl main 600 600 O_____________ hurdat_atl AL151995 39.4000 -60.6000 HU 65 987 1 10 82
1995256N12309 1995 65 NA NA MARILYN 1995-09-21 15:00:00 TS 39.4925 -59.9276 main 624 624 P_____________ AL151995 39.4925 -59.9276 HU 62 988 0 10 79
1995256N12309 1995 65 NA NA MARILYN 1995-09-21 18:00:00 TS 39.6000 -59.3000 60 990 hurdat_atl main 635 635 O_____________ hurdat_atl AL151995 39.6000 -59.3000 TS 60 990 0 9 76
1995256N12309 1995 65 NA NA MARILYN 1995-09-21 21:00:00 TS 39.7222 -58.7552 main 639 634 P_____________ AL151995 39.7222 -58.7552 TS 57 991 0 8 75
1995256N12309 1995 65 NA NA MARILYN 1995-09-22 00:00:00 TS 39.8000 -58.3000 55 992 hurdat_atl main 642 642 O_____________ hurdat_atl AL151995 39.8000 -58.3000 TS 55 992 0 6 84
1995256N12309 1995 65 NA NA MARILYN 1995-09-22 03:00:00 TS 39.7873 -57.9123 main 654 654 P_____________ AL151995 39.7873 -57.9123 TS 55 993 0 5 101
1995256N12309 1995 65 NA NA MARILYN 1995-09-22 06:00:00 ET 39.7000 -57.6000 55 994 hurdat_atl main 675 675 O_____________ hurdat_atl AL151995 39.7000 -57.6000 EX 55 994 -4 5 115
1995256N12309 1995 65 NA NA MARILYN 1995-09-22 09:00:00 ET 39.5724 -57.3200 main 695 695 P_____________ AL151995 39.5724 -57.3200 EX 55 995 -4 5 128
1995256N12309 1995 65 NA NA MARILYN 1995-09-22 12:00:00 ET 39.4000 -57.1000 55 996 hurdat_atl main 723 723 O_____________ hurdat_atl AL151995 39.4000 -57.1000 EX 55 996 -4 5 139
1995256N12309 1995 65 NA NA MARILYN 1995-09-22 15:00:00 ET 39.2225 -56.9201 main 750 750 P_____________ AL151995 39.2225 -56.9201 EX 55 997 -4 5 150
1995256N12309 1995 65 NA NA MARILYN 1995-09-22 18:00:00 ET 39.0000 -56.8000 55 998 hurdat_atl main 774 774 O_____________ hurdat_atl AL151995 39.0000 -56.8000 EX 55 998 -4 5 163
1995256N12309 1995 65 NA NA MARILYN 1995-09-22 21:00:00 ET 38.7150 -56.7276 main 808 808 P_____________ AL151995 38.7150 -56.7276 EX 52 999 -4 6 172
1995256N12309 1995 65 NA NA MARILYN 1995-09-23 00:00:00 ET 38.4000 -56.7000 50 1000 hurdat_atl main 838 838 O_____________ hurdat_atl AL151995 38.4000 -56.7000 EX 50 1000 -4 6 178
1995256N12309 1995 65 NA NA MARILYN 1995-09-23 03:00:00 ET 38.1075 -56.6926 main 869 869 P_____________ AL151995 38.1075 -56.6926 EX 47 1000 -4 6 179
1995256N12309 1995 65 NA NA MARILYN 1995-09-23 06:00:00 ET 37.8000 -56.7000 45 1001 hurdat_atl main 900 900 O_____________ hurdat_atl AL151995 37.8000 -56.7000 EX 45 1001 -4 7 178
1995256N12309 1995 65 NA NA MARILYN 1995-09-23 09:00:00 ET 37.4425 -56.6924 main 941 941 P_____________ AL151995 37.4425 -56.6924 EX 40 1001 -4 7 0
1995256N12309 1995 65 NA NA MARILYN 1995-09-23 12:00:00 ET 37.1000 -56.7000 35 1002 hurdat_atl main 972 972 O_____________ hurdat_atl AL151995 37.1000 -56.7000 EX 35 1002 -4 6 0
1995256N12309 1995 65 NA NA MARILYN 1995-09-23 15:00:00 ET 36.8499 -56.7197 main 1004 1004 P_____________ AL151995 36.8499 -56.7197 EX 32 1002 -4 5 189
1995256N12309 1995 65 NA NA MARILYN 1995-09-23 18:00:00 ET 36.6000 -56.8000 30 1003 hurdat_atl main 1022 1022 O_____________ hurdat_atl AL151995 36.6000 -56.8000 EX 30 1003 -4 6 197
1995256N12309 1995 65 NA NA MARILYN 1995-09-23 21:00:00 ET 36.2798 -56.9395 main 1050 1050 P_____________ AL151995 36.2798 -56.9395 EX 30 1003 -4 8 205
1995256N12309 1995 65 NA NA MARILYN 1995-09-24 00:00:00 ET 35.9000 -57.2000 30 1004 hurdat_atl main 1085 1085 O_____________ hurdat_atl AL151995 35.9000 -57.2000 EX 30 1004 -4 10 218
1995256N12309 1995 65 NA NA MARILYN 1995-09-24 03:00:00 ET 35.4882 -57.7119 main 1101 1100 P_____________ AL151995 35.4882 -57.7119 EX 30 1004 -4 12 219
1995256N12309 1995 65 NA NA MARILYN 1995-09-24 06:00:00 ET 35.0000 -58.1000 30 1004 hurdat_atl main 1129 1129 O_____________ hurdat_atl AL151995 35.0000 -58.1000 EX 30 1004 -4 11 193
1995256N12309 1995 65 NA NA MARILYN 1995-09-24 09:00:00 ET 34.3922 -58.0185 main 1191 1191 P_____________ AL151995 34.3922 -58.0185 EX 30 1004 -4 12 165
1995256N12309 1995 65 NA NA MARILYN 1995-09-24 12:00:00 ET 33.8000 -57.7000 30 1005 hurdat_atl main 1263 1263 O_____________ hurdat_atl AL151995 33.8000 -57.7000 EX 30 1005 -4 12 152
1995256N12309 1995 65 NA NA MARILYN 1995-09-24 15:00:00 ET 33.3402 -57.3497 main 1330 1330 P_____________ AL151995 33.3402 -57.3497 EX 30 1005 -4 10 144
1995256N12309 1995 65 NA NA MARILYN 1995-09-24 18:00:00 ET 33.0000 -57.0000 30 1005 hurdat_atl main 1372 1372 O_____________ hurdat_atl AL151995 33.0000 -57.0000 EX 30 1005 -4 7 139
1995256N12309 1995 65 NA NA MARILYN 1995-09-24 21:00:00 ET 32.7849 -56.7706 main 1401 1401 P_____________ AL151995 32.7849 -56.7706 EX 30 1005 -4 5 140
1995256N12309 1995 65 NA NA MARILYN 1995-09-25 00:00:00 ET 32.6000 -56.6000 30 1005 hurdat_atl main 1430 1430 O_____________ hurdat_atl AL151995 32.6000 -56.6000 EX 30 1005 -4 5 148
1995256N12309 1995 65 NA NA MARILYN 1995-09-25 03:00:00 ET 32.3374 -56.4427 main 1468 1468 P_____________ AL151995 32.3374 -56.4427 EX 30 1005 -4 7 157
1995256N12309 1995 65 NA NA MARILYN 1995-09-25 06:00:00 ET 32.0000 -56.3000 30 1005 hurdat_atl main 1502 1502 O_____________ hurdat_atl AL151995 32.0000 -56.3000 EX 30 1005 -4 8 166
1995256N12309 1995 65 NA NA MARILYN 1995-09-25 09:00:00 ET 31.5197 -56.1951 main 1555 1555 P_____________ AL151995 31.5197 -56.1951 EX 30 1005 -4 9 164
1995256N12309 1995 65 NA NA MARILYN 1995-09-25 12:00:00 ET 31.1000 -56.0000 30 1005 hurdat_atl main 1603 1603 O_____________ hurdat_atl AL151995 31.1000 -56.0000 EX 30 1005 -4 8 137
1995256N12309 1995 65 NA NA MARILYN 1995-09-25 15:00:00 ET 30.9255 -55.5575 main 1641 1641 P_____________ AL151995 30.9255 -55.5575 EX 30 1005 -4 8 105
1995256N12309 1995 65 NA NA MARILYN 1995-09-25 18:00:00 ET 30.9000 -55.1000 30 1005 hurdat_atl main 1664 1664 O_____________ hurdat_atl AL151995 30.9000 -55.1000 EX 30 1005 -4 6 90
1995256N12309 1995 65 NA NA MARILYN 1995-09-25 21:00:00 ET 30.9272 -54.8702 main 1674 1669 P_____________ AL151995 30.9272 -54.8702 EX 27 1005 -4 4 74
1995256N12309 1995 65 NA NA MARILYN 1995-09-26 00:00:00 ET 31.0000 -54.7000 25 1006 hurdat_atl main 1674 1674 O_____________ hurdat_atl AL151995 31.0000 -54.7000 EX 25 1006 -4 4 72
1995256N12309 1995 65 NA NA MARILYN 1995-09-26 03:00:00 ET 31.0425 -54.4500 main 1684 1673 P_____________ AL151995 31.0425 -54.4499 EX 25 1006 -4 4 77
1995256N12309 1995 65 NA NA MARILYN 1995-09-26 06:00:00 ET 31.1000 -54.2000 25 1006 hurdat_atl main 1679 1672 O_____________ hurdat_atl AL151995 31.1000 -54.2000 EX 25 1006 -4 4 69
1995256N12309 1995 65 NA NA MARILYN 1995-09-26 09:00:00 ET 31.1924 -53.9925 main 1675 1668 P_____________ AL151995 31.1924 -53.9925 EX 25 1006 -4 4 60
1995256N12309 1995 65 NA NA MARILYN 1995-09-26 12:00:00 ET 31.3000 -53.8000 25 1007 hurdat_atl main 1671 1664 O_____________ hurdat_atl AL151995 31.3000 -53.8000 EX 25 1007 -4 4 59
1995256N12309 1995 65 NA NA MARILYN 1995-09-26 15:00:00 ET 31.4000 -53.5925 main 1667 1660 P_____________ AL151995 31.4000 -53.5925 EX 25 1007 -4 4 60
1995256N12309 1995 65 NA NA MARILYN 1995-09-26 18:00:00 ET 31.5000 -53.4000 25 1008 hurdat_atl main 1663 1657 O_____________ hurdat_atl AL151995 31.5000 -53.4000 EX 25 1008 -4 4 54
1995256N12309 1995 65 NA NA MARILYN 1995-09-26 21:00:00 ET 31.6074 -53.2575 main 1657 1650 P_____________ AL151995 31.6074 -53.2575 EX 22 1008 -4 3 52
1995256N12309 1995 65 NA NA MARILYN 1995-09-27 00:00:00 ET 31.7000 -53.1000 20 1009 hurdat_atl main 1653 1653 O_____________ hurdat_atl AL151995 31.7000 -53.1000 EX 20 1009 -4 4 69
1995256N12309 1995 65 NA NA MARILYN 1995-09-27 03:00:00 ET 31.7350 -52.8648 main 1658 1647 P_____________ AL151995 31.7350 -52.8648 EX 20 1009 -4 4 77
1995256N12309 1995 65 NA NA MARILYN 1995-09-27 06:00:00 ET 31.8000 -52.6000 20 1010 hurdat_atl main 1648 1626 O_____________ hurdat_atl AL151995 31.8000 -52.6000 EX 20 1010 -4 5 61
1995256N12309 1995 65 NA NA MARILYN 1995-09-27 09:00:00 ET 31.9775 -52.3426 main 1626 1605 P_____________ AL151995 31.9775 -52.3426 EX 20 1010 -4 6 47
1995256N12309 1995 65 NA NA MARILYN 1995-09-27 12:00:00 ET 32.2000 -52.1000 20 1011 hurdat_atl main 1605 1584 O_____________ hurdat_atl AL151995 32.2000 -52.1000 EX 20 1011 -4 6 42
1995256N12309 1995 65 NA NA MARILYN 1995-09-27 15:00:00 ET 32.4075 -51.8850 main 1584 1563 P_____________ AL151995 32.4075 -51.8850 EX 20 1011 -4 5 40
1995256N12309 1995 65 NA NA MARILYN 1995-09-27 18:00:00 ET 32.6000 -51.7000 20 1012 hurdat_atl main 1563 1553 O_____________ hurdat_atl AL151995 32.6000 -51.7000 EX 20 1012 -4 5 39
1995256N12309 1995 65 NA NA MARILYN 1995-09-27 21:00:00 ET 32.7575 -51.5424 main 1542 1532 P_____________ AL151995 32.7575 -51.5424 EX 20 1012 -4 4 40
1995256N12309 1995 65 NA NA MARILYN 1995-09-28 00:00:00 ET 32.9000 -51.4000 20 1013 hurdat_atl main 1532 1522 O_____________ hurdat_atl AL151995 32.9000 -51.4000 EX 20 1013 -4 4 42
1995256N12309 1995 65 NA NA MARILYN 1995-09-28 03:00:00 ET 33.0425 -51.2425 main 1523 1501 P_____________ AL151995 33.0425 -51.2425 EX 20 1013 -4 4 40
1995256N12309 1995 65 NA NA MARILYN 1995-09-28 06:00:00 ET 33.2000 -51.1000 20 1014 hurdat_atl main 1501 1480 O_____________ hurdat_atl AL151995 33.2000 -51.1000 EX 20 1014 -4 4 30
1995256N12309 1995 65 NA NA MARILYN 1995-09-28 09:00:00 ET 33.3925 -50.9999 main 1480 1459 P_____________ AL151995 33.3925 -50.9999 EX 20 1014 -4 4 23
1995256N12309 1995 65 NA NA MARILYN 1995-09-28 12:00:00 ET 33.6000 -50.9000 20 1014 hurdat_atl main 1459 1438 O_____________ hurdat_atl AL151995 33.6000 -50.9000 EX 20 1014 -4 5 23
1995256N12309 1995 65 NA NA MARILYN 1995-09-28 15:00:00 ET 33.8073 -50.7873 main 1438 1417 P_____________ AL151995 33.8073 -50.7873 EX 20 1013 -4 5 32
1995256N12309 1995 65 NA NA MARILYN 1995-09-28 18:00:00 ET 34.0000 -50.6000 20 1013 hurdat_atl main 1419 1409 O_____________ hurdat_atl AL151995 34.0000 -50.6000 EX 20 1013 -4 5 51
1995256N12309 1995 65 NA NA MARILYN 1995-09-28 21:00:00 ET 34.1425 -50.2872 main 1412 1394 P_____________ AL151995 34.1425 -50.2872 EX 20 1013 -4 7 63
1995256N12309 1995 65 NA NA MARILYN 1995-09-29 00:00:00 ET 34.3000 -49.9000 20 1013 hurdat_atl main 1396 1379 O_____________ hurdat_atl AL151995 34.3000 -49.9000 EX 20 1013 -4 7 58
1995256N12309 1995 65 NA NA MARILYN 1995-09-29 03:00:00 ET 34.5349 -49.5149 main 1381 1354 P_____________ AL151995 34.5349 -49.5149 EX 20 1013 -4 8 53
1995256N12309 1995 65 NA NA MARILYN 1995-09-29 06:00:00 ET 34.8000 -49.1000 20 1014 hurdat_atl main 1356 1333 O_____________ hurdat_atl AL151995 34.8000 -49.1000 EX 20 1014 -4 9 52
1995256N12309 1995 65 NA NA MARILYN 1995-09-29 09:00:00 ET 35.0873 -48.6654 main 1333 1321 P_____________ AL151995 35.0873 -48.6654 EX 20 1014 -4 9 56
1995256N12309 1995 65 NA NA MARILYN 1995-09-29 12:00:00 ET 35.3000 -48.2000 20 1014 hurdat_atl main 1324 1321 O_____________ hurdat_atl AL151995 35.3000 -48.2000 EX 20 1014 -4 9 72
1995256N12309 1995 65 NA NA MARILYN 1995-09-29 15:00:00 ET 35.3680 -47.5943 main 1330 1330 P_____________ AL151995 35.3680 -47.5943 EX 20 1014 -4 8 90
1995256N12309 1995 65 NA NA MARILYN 1995-09-29 18:00:00 ET 35.3000 -47.2000 20 1014 hurdat_atl main 1352 1352 O_____________ hurdat_atl AL151995 35.3000 -47.2000 EX 20 1014 -4 3 137
1995256N12309 1995 65 NA NA MARILYN 1995-09-29 21:00:00 ET 35.1222 -47.3153 main 1370 1367 P_____________ AL151995 35.1222 -47.3153 EX 20 1014 -4 6 226
1995256N12309 1995 65 NA NA MARILYN 1995-09-30 00:00:00 ET 34.9000 -47.7000 20 1015 hurdat_atl main 1380 1377 O_____________ hurdat_atl AL151995 34.9000 -47.7000 EX 20 1015 -4 7 237
1995256N12309 1995 65 NA NA MARILYN 1995-09-30 03:00:00 ET 34.7201 -48.0777 main 1391 1386 P_____________ AL151995 34.7201 -48.0777 EX 20 1015 -4 7 245
1995256N12309 1995 65 NA NA MARILYN 1995-09-30 06:00:00 ET 34.6000 -48.5000 20 1015 hurdat_atl main 1391 1382 O_____________ hurdat_atl AL151995 34.6000 -48.5000 EX 20 1015 -4 7 258
1995256N12309 1995 65 NA NA MARILYN 1995-09-30 09:00:00 ET 34.5699 -48.9073 main 1382 1374 P_____________ AL151995 34.5699 -48.9073 EX 20 1015 -4 7 270
1995256N12309 1995 65 NA NA MARILYN 1995-09-30 12:00:00 ET 34.6000 -49.3000 20 1016 hurdat_atl main 1374 1366 O_____________ hurdat_atl AL151995 34.6000 -49.3000 EX 20 1016 -4 6 277
1995256N12309 1995 65 NA NA MARILYN 1995-09-30 15:00:00 ET 34.6424 -49.6724 main 1366 1350 P_____________ AL151995 34.6424 -49.6724 EX 20 1016 -4 6 280
1995256N12309 1995 65 NA NA MARILYN 1995-09-30 18:00:00 ET 34.7000 -50.0000 20 1016 hurdat_atl main 1350 1346 O_____________ hurdat_atl AL151995 34.7000 -50.0000 EX 20 1016 -4 5 282
1995256N12309 1995 65 NA NA MARILYN 1995-09-30 21:00:00 ET 34.7423 -50.2651 main 1346 1332 P_____________ AL151995 34.7423 -50.2651 EX 20 1016 -4 4 284
1995256N12309 1995 65 NA NA MARILYN 1995-10-01 00:00:00 ET 34.8000 -50.5000 20 1016 hurdat_atl main 1332 1318 O_____________ hurdat_atl AL151995 34.8000 -50.5000 EX 20 1016 -4 4 291
1995256N12309 1995 65 NA NA MARILYN 1995-10-01 03:00:00 ET 34.8924 -50.7500 main 1318 1303 P_____________ AL151995 34.8924 -50.7500 EX 20 1016 -4 5 296
1995256N12309 1995 65 NA NA MARILYN 1995-10-01 06:00:00 ET 35.0000 -51.0000 20 1016 hurdat_atl main 1303 1290 O_____________ hurdat_atl AL151995 35.0000 -51.0000 EX 20 1016 -4 5 297
1995256N12309 1995 65 NA NA MARILYN 1995-10-01 09:00:00 ET 35.1075 -51.2575 main 1289 1276 P_____________ AL151995 35.1075 -51.2575 EX 20 1016 -4 5 296
1995256N12309 1995 65 NA NA MARILYN 1995-10-01 12:00:00 ET 35.2000 -51.5000 20 1016 hurdat_atl main 1276 1263 O_____________ hurdat_atl AL151995 35.2000 -51.5000 EX 20 1016 -4 4 292
1995256N12309 1995 65 NA NA MARILYN 1995-10-01 15:00:00 ET 35.2600 -51.7100 main 1263 1261 P_____________ AL151995 35.2600 -51.7100 EX 20 1016 -4 3 287
1995256N12309 1995 65 NA NA MARILYN 1995-10-01 18:00:00 ET 35.3000 -51.9000 20 1016 hurdat_atl main 1261 O_____________ hurdat_atl AL151995 35.3000 -51.9000 EX 20 1016 -4 3 285

About IBTrACS Database

This database is a web-friendly format of International Best Track Archive for Climate Stewardship (IBTrACS), a global best track data archive curated by NOAA dating back to 1842.

Updated: 2021-12-03